sensor_id;sensor_type;location;lat;lon;timestamp;temperature;humidity
50690;DHT22;71367;48.298;11.238;2023-11-19T00:04:55;5.10;99.90
50690;DHT22;71367;48.298;11.238;2023-11-19T00:19:59;5.20;99.90
50690;DHT22;71367;48.298;11.238;2023-11-19T00:35:03;5.40;99.90
50690;DHT22;71367;48.298;11.238;2023-11-19T00:50:08;5.70;99.90
50690;DHT22;71367;48.298;11.238;2023-11-19T01:05:13;6.00;99.90
50690;DHT22;71367;48.298;11.238;2023-11-19T01:20:18;6.20;99.90
50690;DHT22;71367;48.298;11.238;2023-11-19T01:35:22;6.50;99.90
50690;DHT22;71367;48.298;11.238;2023-11-19T01:50:26;6.90;99.90
50690;DHT22;71367;48.298;11.238;2023-11-19T02:05:31;7.20;99.90
50690;DHT22;71367;48.298;11.238;2023-11-19T02:20:36;7.50;99.90
50690;DHT22;71367;48.298;11.238;2023-11-19T02:35:40;7.70;99.90
50690;DHT22;71367;48.298;11.238;2023-11-19T02:50:44;7.80;99.90
50690;DHT22;71367;48.298;11.238;2023-11-19T03:05:50;7.80;99.90
50690;DHT22;71367;48.298;11.238;2023-11-19T03:20:54;7.90;99.90
50690;DHT22;71367;48.298;11.238;2023-11-19T03:36:00;7.90;99.90
50690;DHT22;71367;48.298;11.238;2023-11-19T03:51:08;8.00;99.90
50690;DHT22;71367;48.298;11.238;2023-11-19T04:06:13;8.10;99.90
50690;DHT22;71367;48.298;11.238;2023-11-19T04:21:18;8.10;99.90
50690;DHT22;71367;48.298;11.238;2023-11-19T04:36:23;8.10;99.90
50690;DHT22;71367;48.298;11.238;2023-11-19T04:51:28;8.20;99.90
50690;DHT22;71367;48.298;11.238;2023-11-19T05:06:32;8.30;99.90
50690;DHT22;71367;48.298;11.238;2023-11-19T05:21:38;8.50;99.90
50690;DHT22;71367;48.298;11.238;2023-11-19T05:36:42;8.60;99.90
50690;DHT22;71367;48.298;11.238;2023-11-19T05:51:47;8.60;99.90
50690;DHT22;71367;48.298;11.238;2023-11-19T06:06:51;8.60;99.90
50690;DHT22;71367;48.298;11.238;2023-11-19T06:21:57;8.70;99.90
50690;DHT22;71367;48.298;11.238;2023-11-19T06:37:02;8.70;99.90
50690;DHT22;71367;48.298;11.238;2023-11-19T06:52:07;8.80;99.90
50690;DHT22;71367;48.298;11.238;2023-11-19T07:07:11;9.00;99.90
50690;DHT22;71367;48.298;11.238;2023-11-19T07:22:17;9.20;99.90
50690;DHT22;71367;48.298;11.238;2023-11-19T07:37:25;9.30;99.90
50690;DHT22;71367;48.298;11.238;2023-11-19T07:52:29;9.50;99.90
50690;DHT22;71367;48.298;11.238;2023-11-19T08:07:34;9.70;99.90
50690;DHT22;71367;48.298;11.238;2023-11-19T08:22:39;10.00;99.90
50690;DHT22;71367;48.298;11.238;2023-11-19T08:37:43;10.20;99.90
50690;DHT22;71367;48.298;11.238;2023-11-19T08:52:52;10.40;99.90
50690;DHT22;71367;48.298;11.238;2023-11-19T09:07:56;10.60;99.90
50690;DHT22;71367;48.298;11.238;2023-11-19T09:23:00;10.80;99.90
50690;DHT22;71367;48.298;11.238;2023-11-19T09:38:05;11.30;99.90
50690;DHT22;71367;48.298;11.238;2023-11-19T09:53:10;11.10;99.90
50690;DHT22;71367;48.298;11.238;2023-11-19T10:08:15;11.70;99.90
50690;DHT22;71367;48.298;11.238;2023-11-19T10:23:22;12.20;99.90
50690;DHT22;71367;48.298;11.238;2023-11-19T10:38:37;12.50;99.90
50690;DHT22;71367;48.298;11.238;2023-11-19T10:53:43;12.40;99.90
50690;DHT22;71367;48.298;11.238;2023-11-19T11:08:49;12.30;99.90
50690;DHT22;71367;48.298;11.238;2023-11-19T11:39:29;13.10;99.90
50690;DHT22;71367;48.298;11.238;2023-11-19T11:54:35;13.70;99.90
50690;DHT22;71367;48.298;11.238;2023-11-19T12:09:41;14.00;99.90
50690;DHT22;71367;48.298;11.238;2023-11-19T12:24:46;14.00;99.90
50690;DHT22;71367;48.298;11.238;2023-11-19T12:39:52;13.40;99.90
50690;DHT22;71367;48.298;11.238;2023-11-19T12:54:56;13.30;99.90
50690;DHT22;71367;48.298;11.238;2023-11-19T13:10:03;13.30;99.90
50690;DHT22;71367;48.298;11.238;2023-11-19T13:25:08;13.10;99.90
50690;DHT22;71367;48.298;11.238;2023-11-19T13:40:21;13.20;99.90
50690;DHT22;71367;48.298;11.238;2023-11-19T13:55:27;13.20;99.90
50690;DHT22;71367;48.298;11.238;2023-11-19T14:10:31;13.20;99.90
50690;DHT22;71367;48.298;11.238;2023-11-19T14:25:35;13.30;99.90
50690;DHT22;71367;48.298;11.238;2023-11-19T14:40:41;13.10;99.90
50690;DHT22;71367;48.298;11.238;2023-11-19T14:55:46;13.10;99.90
50690;DHT22;71367;48.298;11.238;2023-11-19T15:10:51;12.80;99.90
50690;DHT22;71367;48.298;11.238;2023-11-19T15:25:55;12.40;99.90
50690;DHT22;71367;48.298;11.238;2023-11-19T15:41:00;12.20;99.90
50690;DHT22;71367;48.298;11.238;2023-11-19T15:56:06;11.80;99.90
50690;DHT22;71367;48.298;11.238;2023-11-19T16:11:09;11.60;99.90
50690;DHT22;71367;48.298;11.238;2023-11-19T16:26:15;11.40;99.90
50690;DHT22;71367;48.298;11.238;2023-11-19T16:41:19;11.20;99.90
50690;DHT22;71367;48.298;11.238;2023-11-19T16:56:24;11.10;99.90
50690;DHT22;71367;48.298;11.238;2023-11-19T17:11:28;11.10;99.90
50690;DHT22;71367;48.298;11.238;2023-11-19T17:26:31;11.00;99.90
50690;DHT22;71367;48.298;11.238;2023-11-19T17:41:35;11.00;99.90
50690;DHT22;71367;48.298;11.238;2023-11-19T17:56:39;10.90;99.90
50690;DHT22;71367;48.298;11.238;2023-11-19T18:11:42;10.80;99.90
50690;DHT22;71367;48.298;11.238;2023-11-19T18:26:46;10.80;99.90
50690;DHT22;71367;48.298;11.238;2023-11-19T18:41:50;10.60;99.90
50690;DHT22;71367;48.298;11.238;2023-11-19T18:56:53;10.40;99.90
50690;DHT22;71367;48.298;11.238;2023-11-19T19:11:59;10.30;99.90
50690;DHT22;71367;48.298;11.238;2023-11-19T19:27:03;10.20;99.90
50690;DHT22;71367;48.298;11.238;2023-11-19T19:42:06;10.10;99.90
50690;DHT22;71367;48.298;11.238;2023-11-19T19:57:12;10.00;99.90
50690;DHT22;71367;48.298;11.238;2023-11-19T20:12:20;9.80;99.90
50690;DHT22;71367;48.298;11.238;2023-11-19T20:27:24;9.70;99.90
50690;DHT22;71367;48.298;11.238;2023-11-19T20:42:27;9.60;99.90
50690;DHT22;71367;48.298;11.238;2023-11-19T20:57:32;9.50;99.90
50690;DHT22;71367;48.298;11.238;2023-11-19T21:12:37;9.40;99.90
50690;DHT22;71367;48.298;11.238;2023-11-19T21:27:41;9.40;99.90
50690;DHT22;71367;48.298;11.238;2023-11-19T21:42:46;9.40;99.90
50690;DHT22;71367;48.298;11.238;2023-11-19T21:57:50;9.50;99.90
50690;DHT22;71367;48.298;11.238;2023-11-19T22:12:54;9.50;99.90
50690;DHT22;71367;48.298;11.238;2023-11-19T22:27:58;9.60;99.90
50690;DHT22;71367;48.298;11.238;2023-11-19T22:43:02;9.50;99.90
50690;DHT22;71367;48.298;11.238;2023-11-19T22:58:06;9.40;99.90
50690;DHT22;71367;48.298;11.238;2023-11-19T23:13:10;9.40;99.90
50690;DHT22;71367;48.298;11.238;2023-11-19T23:28:15;9.60;99.90
50690;DHT22;71367;48.298;11.238;2023-11-19T23:43:19;9.60;99.90
50690;DHT22;71367;48.298;11.238;2023-11-19T23:58:23;9.60;99.90
